createdAt,value
2017-09-12T00:02:14.355Z,99369.22
2017-09-12T00:07:16.409Z,99365.69
2017-09-12T00:12:18.431Z,99356.62
2017-09-12T00:17:20.871Z,99340.40
2017-09-12T00:22:22.884Z,99358.94
2017-09-12T00:27:24.892Z,99372.80
2017-09-12T00:32:27.116Z,99382.20
2017-09-12T00:37:30.094Z,99397.64
2017-09-12T00:42:32.182Z,99405.34
2017-09-12T00:47:34.210Z,99407.89
2017-09-12T00:52:36.290Z,99415.92
2017-09-12T00:57:39.275Z,99424.06
2017-09-12T01:02:43.178Z,99419.84
2017-09-12T01:07:47.713Z,99421.42
2017-09-12T01:12:53.212Z,99422.70
2017-09-12T01:18:01.289Z,99424.82
2017-09-12T01:23:07.774Z,99440.86
2017-09-12T01:28:10.726Z,99444.02
2017-09-12T01:33:12.881Z,99431.27
2017-09-12T01:38:14.953Z,99363.97
2017-09-12T01:43:17.014Z,99446.41
2017-09-12T01:48:19.094Z,99443.00
2017-09-12T01:53:21.830Z,99448.37
2017-09-12T01:58:23.852Z,99447.09
2017-09-12T02:03:25.891Z,99455.53
2017-09-12T02:08:28.636Z,99453.14
2017-09-12T02:13:30.667Z,99460.90
2017-09-12T02:18:33.351Z,99447.94
2017-09-12T02:23:35.755Z,99440.48
2017-09-12T02:28:37.967Z,99453.91
2017-09-12T02:33:41.400Z,99453.82
2017-09-12T02:38:43.348Z,99453.64
2017-09-12T02:43:45.391Z,99443.80
2017-09-12T02:48:47.369Z,99454.67
2017-09-12T02:53:49.461Z,99455.69
2017-09-12T02:58:52.396Z,99468.91
2017-09-12T03:03:54.438Z,99466.56
2017-09-12T03:08:56.484Z,99456.67
2017-09-12T03:13:58.527Z,99461.75
2017-09-12T03:19:00.512Z,99464.77
2017-09-12T03:24:02.542Z,99464.73
2017-09-12T03:29:04.699Z,99472.70
2017-09-12T03:34:06.670Z,99470.70
2017-09-12T03:39:10.701Z,99469.94
2017-09-12T03:44:12.916Z,99476.89
2017-09-12T03:49:15.819Z,99476.59
2017-09-12T03:54:22.043Z,99477.14
2017-09-12T03:59:28.819Z,99473.61
2017-09-12T04:04:36.632Z,99480.34
2017-09-12T04:09:43.944Z,99486.75
2017-09-12T04:14:46.235Z,99485.72
2017-09-12T04:19:48.325Z,99485.33
2017-09-12T04:24:51.639Z,99493.66
2017-09-12T04:29:53.733Z,99497.87
2017-09-12T04:34:55.814Z,99505.22
2017-09-12T04:39:58.573Z,99506.95
2017-09-12T04:45:00.648Z,99517.20
2017-09-12T04:50:02.764Z,99521.08
2017-09-12T04:55:04.776Z,99523.30
2017-09-12T05:00:06.884Z,99523.42
2017-09-12T05:05:09.796Z,99537.04
2017-09-12T05:10:11.823Z,99541.01
2017-09-12T05:15:14.651Z,99544.13
2017-09-12T05:20:17.536Z,99552.06
2017-09-12T05:25:20.492Z,99562.95
2017-09-12T05:30:22.560Z,99563.86
2017-09-12T05:35:27.514Z,99574.96
2017-09-12T05:40:29.619Z,99589.51
2017-09-12T05:45:31.684Z,99589.70
2017-09-12T05:50:34.382Z,99585.72
2017-09-12T05:55:36.408Z,99597.19
2017-09-12T06:00:39.164Z,99606.77
2017-09-12T06:05:42.008Z,99618.12
2017-09-12T06:10:44.254Z,99605.62
2017-09-12T06:15:46.563Z,99621.80
2017-09-12T06:20:49.380Z,99623.45
2017-09-12T06:25:51.339Z,99619.66
2017-09-12T06:30:53.300Z,99629.05
2017-09-12T06:35:56.053Z,99633.14
2017-09-12T06:40:58.103Z,99643.64
2017-09-12T06:46:00.085Z,99643.63
2017-09-12T06:51:02.477Z,99653.92
2017-09-12T06:56:04.495Z,99657.69
2017-09-12T07:01:06.492Z,99660.25
2017-09-12T07:06:08.506Z,99663.80
2017-09-12T07:11:10.516Z,99674.81
2017-09-12T07:16:12.587Z,99682.67
2017-09-12T07:21:14.737Z,99687.84
2017-09-12T07:26:16.907Z,99695.31
2017-09-12T07:31:19.055Z,99703.06
2017-09-12T07:36:21.425Z,99703.33
2017-09-12T07:41:23.559Z,99711.43
2017-09-12T07:46:25.598Z,99719.76
2017-09-12T07:51:27.576Z,99731.68
2017-09-12T07:56:30.021Z,99743.42
2017-09-12T08:01:32.412Z,99742.97
2017-09-12T08:06:34.371Z,99751.67
2017-09-12T08:11:37.801Z,99772.23
2017-09-12T08:16:39.752Z,99772.63
2017-09-12T08:21:41.732Z,99784.75
2017-09-12T08:26:44.939Z,99783.48
2017-09-12T08:31:47.193Z,99794.48
2017-09-12T08:36:49.192Z,99795.36
2017-09-12T08:41:51.665Z,99803.61
2017-09-12T08:46:53.664Z,99808.33
2017-09-12T08:51:56.420Z,99812.45
2017-09-12T08:56:58.504Z,99805.08
2017-09-12T09:02:02.445Z,99815.95
2017-09-12T09:07:04.566Z,99818.45
2017-09-12T09:12:06.623Z,99819.88
2017-09-12T09:17:08.705Z,99820.11
2017-09-12T09:22:10.809Z,99833.23
2017-09-12T09:27:13.155Z,99830.97
2017-09-12T09:32:15.263Z,99834.09
2017-09-12T09:37:17.467Z,99819.81
2017-09-12T09:42:19.750Z,99846.03
2017-09-12T09:47:21.972Z,99848.02
2017-09-12T09:52:24.939Z,99843.05
2017-09-12T09:57:28.235Z,99859.33
2017-09-12T10:02:30.175Z,99857.70
2017-09-12T10:07:32.194Z,99856.46
2017-09-12T10:12:35.144Z,99865.39
2017-09-12T10:17:39.138Z,99881.09
2017-09-12T10:22:41.394Z,99881.91
2017-09-12T10:27:44.179Z,99883.56
2017-09-12T10:32:46.543Z,99886.77
2017-09-12T10:37:50.256Z,99890.02
2017-09-12T10:42:53.129Z,99905.01
2017-09-12T10:47:55.357Z,99889.11
2017-09-12T10:52:58.568Z,99885.91
2017-09-12T10:58:00.679Z,99896.89
2017-09-12T11:03:02.756Z,99894.66
2017-09-12T11:08:05.936Z,99904.09
2017-09-12T11:13:08.180Z,99908.28
2017-09-12T11:18:10.411Z,99907.27
2017-09-12T11:23:12.416Z,99915.95
2017-09-12T11:28:14.514Z,99915.00
2017-09-12T11:33:16.550Z,99919.88
2017-09-12T11:38:18.516Z,99917.56
2017-09-12T11:43:20.522Z,99929.25
2017-09-12T11:48:22.496Z,99930.14
2017-09-12T11:53:24.582Z,99930.48
2017-09-12T11:58:26.552Z,99928.25
2017-09-12T12:03:28.870Z,99922.70
2017-09-12T12:08:30.923Z,99935.71
2017-09-12T12:13:33.400Z,99935.48
2017-09-12T12:18:35.412Z,99934.05
2017-09-12T12:23:38.247Z,99928.12
2017-09-12T12:28:40.486Z,99939.84
2017-09-12T12:33:42.452Z,99959.38
2017-09-12T12:38:44.802Z,99963.19
2017-09-12T12:43:46.942Z,99969.30
2017-09-12T12:48:49.000Z,99989.78
2017-09-12T12:53:51.103Z,99985.25
2017-09-12T12:58:53.161Z,99978.22
2017-09-12T13:03:55.495Z,99976.23
2017-09-12T13:08:57.576Z,99978.30
2017-09-12T13:14:00.045Z,99980.56
2017-09-12T13:19:08.284Z,99986.48
2017-09-12T13:24:16.223Z,99998.07
2017-09-12T13:29:20.975Z,100020.77
2017-09-12T13:34:23.585Z,100024.15
2017-09-12T13:39:26.170Z,100037.26
2017-09-12T13:44:28.429Z,100036.65
2017-09-12T13:49:32.060Z,100052.17
2017-09-12T13:54:34.924Z,100087.11
2017-09-12T13:59:38.209Z,100085.20
2017-09-12T14:04:40.586Z,100106.89
2017-09-12T14:09:43.213Z,100114.14
2017-09-12T14:14:49.198Z,100117.69
2017-09-12T14:19:52.889Z,100133.42
2017-09-12T14:24:55.280Z,100129.13
2017-09-12T14:29:58.247Z,100119.80
2017-09-12T14:35:00.641Z,100112.25
2017-09-12T14:40:02.961Z,100125.88
2017-09-12T14:45:06.030Z,100120.62
2017-09-12T14:50:08.023Z,100115.82
2017-09-12T14:55:10.337Z,100095.37
2017-09-12T15:00:13.103Z,100148.00
2017-09-12T15:05:15.281Z,100150.48
2017-09-12T15:10:18.105Z,100143.48
2017-09-12T15:15:27.200Z,100148.60
2017-09-12T15:20:29.259Z,100152.63
2017-09-12T15:25:31.236Z,100152.16
2017-09-12T15:30:33.916Z,100148.55
2017-09-12T15:35:36.101Z,100150.53
2017-09-12T15:40:39.266Z,100150.45
2017-09-12T15:45:42.284Z,100152.66
2017-09-12T15:50:46.004Z,100142.27
2017-09-12T15:55:50.459Z,100149.53
2017-09-12T16:00:52.467Z,100152.37
2017-09-12T16:05:54.804Z,100156.14
2017-09-12T16:10:56.858Z,100152.49
2017-09-12T16:15:59.486Z,100155.03
2017-09-12T16:21:01.503Z,100155.72
2017-09-12T16:26:04.223Z,100152.97
2017-09-12T16:31:06.973Z,100166.56
2017-09-12T16:36:09.036Z,100167.27
2017-09-12T16:41:11.022Z,100168.33
2017-09-12T16:46:13.748Z,100182.69
2017-09-12T16:51:16.557Z,100195.43
2017-09-12T16:56:22.301Z,100200.02
2017-09-12T17:01:24.362Z,100207.68
2017-09-12T17:06:26.437Z,100218.95
2017-09-12T17:11:28.576Z,100203.20
2017-09-12T17:16:30.596Z,100195.77
2017-09-12T17:21:32.682Z,100211.22
2017-09-12T17:26:34.827Z,100217.98
2017-09-12T17:31:36.816Z,100224.06
2017-09-12T17:36:38.932Z,100224.73
2017-09-12T17:41:42.329Z,100235.40
2017-09-12T17:46:44.559Z,100242.97
2017-09-12T17:51:46.743Z,100257.92
2017-09-12T17:56:48.857Z,100304.49
2017-09-12T18:01:50.853Z,100275.66
2017-09-12T18:06:53.002Z,100276.38
2017-09-12T18:11:54.963Z,100266.14
2017-09-12T18:16:57.855Z,100272.35
2017-09-12T18:22:00.269Z,100266.69
2017-09-12T18:27:02.656Z,100267.92
2017-09-12T18:32:05.830Z,100268.77
2017-09-12T18:37:08.532Z,100272.73
2017-09-12T18:42:10.773Z,100274.09
2017-09-12T18:47:12.778Z,100281.88
2017-09-12T18:52:15.095Z,100283.63
2017-09-12T18:57:17.319Z,100287.38
2017-09-12T19:02:20.030Z,100285.20
2017-09-12T19:07:22.039Z,100286.35
2017-09-12T19:12:24.611Z,100297.31
2017-09-12T19:17:26.619Z,100277.72
2017-09-12T19:22:29.366Z,100298.58
2017-09-12T19:27:31.370Z,100297.81
2017-09-12T19:32:33.423Z,100302.99
2017-09-12T19:37:35.374Z,100312.61
2017-09-12T19:42:37.347Z,100297.09
2017-09-12T19:47:39.693Z,100297.58
2017-09-12T19:52:41.691Z,100307.02
2017-09-12T19:57:43.759Z,100298.13
2017-09-12T20:02:45.792Z,100301.44
2017-09-12T20:07:48.594Z,100301.87
2017-09-12T20:12:50.588Z,100296.47
2017-09-12T20:17:52.557Z,100298.34
2017-09-12T20:22:55.298Z,100290.52
2017-09-12T20:27:57.284Z,100293.89
2017-09-12T20:32:59.294Z,100295.45
2017-09-12T20:38:01.445Z,100305.26
2017-09-12T20:43:03.409Z,100303.61
2017-09-12T20:48:06.532Z,100303.14
2017-09-12T20:53:08.490Z,100310.80
2017-09-12T20:58:10.464Z,100312.60
2017-09-12T21:03:12.428Z,100308.55
2017-09-12T21:08:14.445Z,100320.44
2017-09-12T21:13:16.422Z,100310.33
2017-09-12T21:18:18.444Z,100321.44
2017-09-12T21:23:21.265Z,100322.02
2017-09-12T21:28:23.259Z,100323.78
2017-09-12T21:33:25.231Z,100317.11
2017-09-12T21:38:27.948Z,100331.50
2017-09-12T21:43:30.009Z,100325.73
2017-09-12T21:48:32.760Z,100324.11
2017-09-12T21:53:34.720Z,100328.60
2017-09-12T21:58:36.725Z,100305.31
2017-09-12T22:03:39.447Z,100295.34
2017-09-12T22:08:41.443Z,100297.52
2017-09-12T22:13:43.407Z,100294.71
2017-09-12T22:18:45.425Z,100291.50
2017-09-12T22:23:47.391Z,100282.44
2017-09-12T22:28:49.519Z,100277.53
2017-09-12T22:33:52.212Z,100265.41
2017-09-12T22:38:54.168Z,100251.67
2017-09-12T22:43:56.095Z,100244.53
2017-09-12T22:48:58.094Z,100247.72
2017-09-12T22:54:01.170Z,100240.89
2017-09-12T22:59:03.141Z,100229.81
2017-09-12T23:04:05.869Z,100223.32
2017-09-12T23:09:07.843Z,100213.09
2017-09-12T23:14:09.783Z,100196.82
2017-09-12T23:19:11.893Z,100188.17
2017-09-12T23:24:13.891Z,100178.91
2017-09-12T23:29:15.897Z,100159.36
2017-09-12T23:34:17.913Z,100171.09
2017-09-12T23:39:19.924Z,100155.89
2017-09-12T23:44:28.885Z,100142.34
2017-09-12T23:49:30.852Z,100136.45
2017-09-12T23:54:36.177Z,100119.59
2017-09-12T23:59:38.130Z,100118.31
